Time;durP1;ratioP1;P1;durP2;ratioP2;P2;SDS_P1;SDS_P2;PMS_P1;PMS_P2;Temp;Humidity;BMP_temperature;BMP_pressure;BME280_temperature;BME280_humidity;BME280_pressure;Samples;Min_cycle;Max_cycle;Signal;HPM_P1;HPM_P2
2024/04/24 00:00:53;;;;;;;8.30;6.30;;;7.80;99.90;;;;;;5348931;26;20528;-69
2024/04/24 00:03:19;;;;;;;8.67;6.87;;;7.80;99.90;;;;;;5379902;26;20217;-69
2024/04/24 00:05:44;;;;;;;10.67;6.90;;;7.80;99.90;;;;;;5380372;26;20210;-69
2024/04/24 00:08:10;;;;;;;7.47;5.60;;;7.80;99.90;;;;;;5380181;26;20560;-70
2024/04/24 00:10:36;;;;;;;8.00;6.67;;;7.80;99.90;;;;;;5380035;26;20322;-68
2024/04/24 00:13:01;;;;;;;8.00;6.30;;;7.80;99.90;;;;;;5379754;26;20260;-68
2024/04/24 00:15:27;;;;;;;14.93;6.70;;;7.80;99.90;;;;;;5380225;26;20455;-68
2024/04/24 00:17:52;;;;;;;6.70;5.47;;;7.80;99.90;;;;;;5380113;26;20553;-68
2024/04/24 00:20:18;;;;;;;7.27;5.50;;;7.80;99.90;;;;;;5380150;26;20680;-68
2024/04/24 00:22:43;;;;;;;11.13;6.27;;;7.80;99.90;;;;;;5379627;26;20254;-68
2024/04/24 00:25:09;;;;;;;7.17;5.00;;;7.80;99.90;;;;;;5379901;26;20256;-67
2024/04/24 00:27:34;;;;;;;8.43;4.90;;;7.80;99.90;;;;;;5379915;26;20210;-68
2024/04/24 00:30:00;;;;;;;7.30;5.10;;;7.90;99.90;;;;;;5380005;26;20209;-69
2024/04/24 00:32:25;;;;;;;7.23;4.60;;;7.90;99.90;;;;;;5379432;26;20560;-68
2024/04/24 00:34:51;;;;;;;7.30;4.10;;;7.90;99.90;;;;;;5380156;26;20217;-68
2024/04/24 00:37:17;;;;;;;4.43;3.20;;;7.90;99.90;;;;;;5379876;26;20805;-69
2024/04/24 00:39:42;;;;;;;4.23;3.57;;;7.90;99.90;;;;;;5372667;26;20269;-69
2024/04/24 00:42:21;;;;;;;4.40;3.40;;;7.80;99.90;;;;;;5371307;26;20275;-68
2024/04/24 00:44:46;;;;;;;6.50;3.40;;;7.80;99.90;;;;;;5372291;26;20222;-68
2024/04/24 00:47:15;;;;;;;6.70;2.97;;;7.80;99.90;;;;;;5379736;26;20523;-68
2024/04/24 00:49:44;;;;;;;3.40;2.40;;;7.80;99.90;;;;;;5379642;26;20221;-69
2024/04/24 00:52:10;;;;;;;3.57;2.80;;;7.80;99.90;;;;;;5379204;26;20499;-68
2024/04/24 00:54:36;;;;;;;7.17;3.20;;;7.70;99.90;;;;;;5379542;26;20499;-68
2024/04/24 00:57:02;;;;;;;5.80;3.13;;;7.70;99.90;;;;;;5379677;26;20260;-68
2024/04/24 00:59:27;;;;;;;9.67;2.87;;;7.60;99.90;;;;;;5379529;26;20440;-68
2024/04/24 01:01:53;;;;;;;4.50;2.60;;;7.60;99.90;;;;;;5381557;26;20889;-68
2024/04/24 01:04:18;;;;;;;3.27;2.97;;;7.50;99.90;;;;;;5351770;26;20217;-69
2024/04/24 01:06:44;;;;;;;4.00;2.37;;;7.40;99.90;;;;;;5382461;26;20728;-68
2024/04/24 01:09:09;;;;;;;5.30;2.87;;;7.40;99.90;;;;;;5351744;26;20241;-68
2024/04/24 01:11:35;;;;;;;7.80;3.23;;;7.30;99.90;;;;;;5382131;26;20290;-68
2024/04/24 01:14:02;;;;;;;3.23;2.73;;;7.30;99.90;;;;;;5382635;26;20210;-69
2024/04/24 01:16:33;;;;;;;5.60;2.53;;;7.20;99.90;;;;;;5382677;26;20217;-67
2024/04/24 01:19:03;;;;;;;6.53;2.90;;;7.30;99.90;;;;;;5382432;26;20446;-68
2024/04/24 01:21:52;;;;;;;5.03;2.40;;;7.20;99.90;;;;;;5351143;26;20934;-69
2024/04/24 01:24:23;;;;;;;3.30;2.47;;;7.20;99.90;;;;;;5330606;26;20594;-69
2024/04/24 01:26:49;;;;;;;7.90;3.50;;;7.10;99.90;;;;;;5382299;26;21064;-68
2024/04/24 01:29:15;;;;;;;4.33;2.13;;;7.10;99.90;;;;;;5382362;26;20772;-68
2024/04/24 01:31:41;;;;;;;2.30;1.80;;;7.00;99.90;;;;;;5350889;26;20468;-68
2024/04/24 01:34:07;;;;;;;11.13;2.70;;;6.90;99.90;;;;;;5382367;26;20496;-68
2024/04/24 01:36:33;;;;;;;4.10;2.93;;;6.80;99.90;;;;;;5382572;26;20213;-68
2024/04/24 01:38:58;;;;;;;7.30;2.40;;;6.70;99.90;;;;;;5376741;26;20463;-68
2024/04/24 01:41:24;;;;;;;4.10;2.10;;;6.70;99.90;;;;;;5378898;26;20229;-68
2024/04/24 01:43:49;;;;;;;5.97;2.03;;;6.60;99.90;;;;;;5382501;26;20342;-69
2024/04/24 01:46:15;;;;;;;3.00;1.47;;;6.60;99.90;;;;;;5382979;26;20339;-68
2024/04/24 01:48:41;;;;;;;2.93;2.17;;;6.60;99.90;;;;;;5382804;26;20326;-69
2024/04/24 01:51:08;;;;;;;5.10;1.70;;;6.60;99.90;;;;;;5375629;26;20229;-68
2024/04/24 01:53:34;;;;;;;4.20;1.80;;;6.60;99.90;;;;;;5382497;26;20513;-70
2024/04/24 01:55:59;;;;;;;5.67;2.07;;;6.60;99.90;;;;;;5383275;26;20590;-68
2024/04/24 01:58:25;;;;;;;5.33;2.30;;;6.60;99.90;;;;;;5382021;26;20214;-68
2024/04/24 02:00:50;;;;;;;1.90;1.70;;;6.60;99.90;;;;;;5382053;26;20269;-69
2024/04/24 02:03:16;;;;;;;8.93;2.10;;;6.60;99.90;;;;;;5381533;26;20240;-68
2024/04/24 02:05:41;;;;;;;3.33;1.80;;;6.60;99.90;;;;;;5382005;26;20205;-68
2024/04/24 02:08:07;;;;;;;8.20;2.10;;;6.60;99.90;;;;;;5381939;26;20599;-68
2024/04/24 02:10:32;;;;;;;7.03;2.90;;;6.60;99.90;;;;;;5381841;26;20229;-69
2024/04/24 02:12:58;;;;;;;3.40;2.03;;;6.60;99.90;;;;;;5380335;26;20381;-69
2024/04/24 02:15:23;;;;;;;2.07;1.87;;;6.60;99.90;;;;;;5381937;26;20218;-68
2024/04/24 02:17:49;;;;;;;5.37;1.97;;;6.70;99.90;;;;;;5381822;26;20547;-67
2024/04/24 02:20:14;;;;;;;14.80;3.17;;;6.70;99.90;;;;;;5380974;26;20229;-68
2024/04/24 02:22:42;;;;;;;8.10;2.07;;;6.70;99.90;;;;;;5372007;26;20272;-69
2024/04/24 02:27:52;;;;;;;10.47;2.00;;;6.70;99.90;;;;;;5381591;26;20516;-69
2024/04/24 02:30:17;;;;;;;4.47;2.77;;;6.70;99.90;;;;;;5381602;26;20459;-68
2024/04/24 02:32:43;;;;;;;4.50;1.93;;;6.70;99.90;;;;;;5381353;26;20558;-68
2024/04/24 02:35:08;;;;;;;2.47;2.27;;;6.70;99.90;;;;;;5381591;26;20221;-68
2024/04/24 02:37:34;;;;;;;1.53;1.27;;;6.70;99.90;;;;;;5381691;26;20250;-68
2024/04/24 02:40:00;;;;;;;3.10;2.17;;;6.70;99.90;;;;;;5378161;26;20218;-69
2024/04/24 02:42:25;;;;;;;3.33;2.40;;;6.70;99.90;;;;;;5380667;26;20226;-69
2024/04/24 02:44:51;;;;;;;1.90;1.57;;;6.70;99.90;;;;;;5381285;26;20721;-70
2024/04/24 02:47:16;;;;;;;3.20;1.40;;;6.70;99.90;;;;;;5381472;26;20275;-70
2024/04/24 02:49:42;;;;;;;4.50;2.17;;;6.70;99.90;;;;;;5381193;26;20249;-69
2024/04/24 02:52:08;;;;;;;1.80;1.70;;;6.70;99.90;;;;;;5380864;26;20576;-69
2024/04/24 02:54:33;;;;;;;2.60;1.53;;;6.70;99.90;;;;;;5381389;26;20696;-69
2024/04/24 02:56:59;;;;;;;4.20;2.23;;;6.70;99.90;;;;;;5380763;26;20209;-69
2024/04/24 02:59:24;;;;;;;2.90;1.80;;;6.70;99.90;;;;;;5380976;26;20210;-69
2024/04/24 03:01:50;;;;;;;3.53;1.93;;;6.70;99.90;;;;;;5379939;26;20229;-68
2024/04/24 03:04:15;;;;;;;11.50;3.23;;;6.70;99.90;;;;;;5380095;26;20206;-68
2024/04/24 03:06:42;;;;;;;7.63;3.03;;;6.70;99.90;;;;;;5380636;26;20210;-69
2024/04/24 03:09:08;;;;;;;3.73;2.30;;;6.70;99.90;;;;;;5378954;26;20222;-68
2024/04/24 03:11:34;;;;;;;7.77;1.90;;;6.80;99.90;;;;;;5359990;26;20455;-68
2024/04/24 03:13:59;;;;;;;4.60;1.77;;;6.80;99.90;;;;;;5380610;26;20535;-69
2024/04/24 03:16:32;;;;;;;5.37;2.33;;;6.70;99.90;;;;;;5380931;26;20312;-69
2024/04/24 03:18:58;;;;;;;5.23;2.77;;;6.70;99.90;;;;;;5380787;26;20225;-69
2024/04/24 03:21:23;;;;;;;2.50;1.87;;;6.70;99.90;;;;;;5380255;26;20574;-68
2024/04/24 03:23:50;;;;;;;2.50;1.93;;;6.70;99.90;;;;;;5380692;26;20460;-69
2024/04/24 03:26:16;;;;;;;1.97;1.70;;;6.70;99.90;;;;;;5350347;26;20233;-69
2024/04/24 03:28:41;;;;;;;4.43;3.77;;;6.70;99.90;;;;;;5380925;26;20495;-69
2024/04/24 03:31:07;;;;;;;2.70;2.50;;;6.70;99.90;;;;;;5349550;26;20704;-68
2024/04/24 03:33:32;;;;;;;7.23;2.10;;;6.70;99.90;;;;;;5380777;26;20260;-69
2024/04/24 03:35:58;;;;;;;5.33;2.60;;;6.70;99.90;;;;;;5380865;26;20590;-69
2024/04/24 03:38:23;;;;;;;1.80;1.70;;;6.70;99.90;;;;;;5380780;26;20671;-69
2024/04/24 03:40:49;;;;;;;9.30;2.10;;;6.70;99.90;;;;;;5346691;26;20280;-68
2024/04/24 03:43:16;;;;;;;2.53;2.07;;;6.70;99.90;;;;;;5379981;26;20233;-69
2024/04/24 03:45:42;;;;;;;5.30;2.20;;;6.70;99.90;;;;;;5349538;26;20650;-68
2024/04/24 03:48:07;;;;;;;3.53;1.97;;;6.70;99.90;;;;;;5375965;26;20460;-69
2024/04/24 03:50:33;;;;;;;3.47;2.50;;;6.70;99.90;;;;;;5380209;26;20303;-68
2024/04/24 03:52:58;;;;;;;10.10;2.60;;;6.70;99.90;;;;;;5379996;26;20229;-68
2024/04/24 03:55:24;;;;;;;4.83;1.93;;;6.70;99.90;;;;;;5380398;26;20210;-69
2024/04/24 03:57:49;;;;;;;4.50;2.40;;;6.70;99.90;;;;;;5349546;26;20635;-69
2024/04/24 04:00:15;;;;;;;2.83;1.70;;;6.70;99.90;;;;;;5380577;26;20241;-69
2024/04/24 04:02:41;;;;;;;4.67;1.53;;;6.70;99.90;;;;;;5349181;26;20719;-69
2024/04/24 04:05:06;;;;;;;1.37;1.27;;;6.70;99.90;;;;;;5380110;26;20209;-68
2024/04/24 04:07:32;;;;;;;2.83;1.63;;;6.60;99.90;;;;;;5379851;26;20261;-70
2024/04/24 04:09:57;;;;;;;2.17;1.80;;;6.70;99.90;;;;;;5380275;26;20744;-69
2024/04/24 04:12:23;;;;;;;4.93;1.47;;;6.60;99.90;;;;;;5372038;26;20279;-68
2024/04/24 04:14:48;;;;;;;2.57;2.03;;;6.60;99.90;;;;;;5380544;26;20327;-69
2024/04/24 04:17:14;;;;;;;4.23;2.30;;;6.60;99.90;;;;;;5380410;26;20568;-68
2024/04/24 04:19:39;;;;;;;7.03;2.40;;;6.60;99.90;;;;;;5380382;26;20751;-68
2024/04/24 04:22:05;;;;;;;2.30;1.30;;;6.60;99.90;;;;;;5379888;26;20226;-68
2024/04/24 04:24:30;;;;;;;3.50;2.20;;;6.60;99.90;;;;;;5366706;26;20215;-69
2024/04/24 04:26:56;;;;;;;2.40;1.33;;;6.60;99.90;;;;;;5372886;26;20265;-68
2024/04/24 04:29:21;;;;;;;1.70;1.10;;;6.60;99.90;;;;;;5349430;26;20233;-68
2024/04/24 04:31:47;;;;;;;2.80;2.03;;;6.60;99.90;;;;;;5378869;26;20705;-69
2024/04/24 04:34:12;;;;;;;11.40;1.87;;;6.60;99.90;;;;;;5380056;26;20206;-69
2024/04/24 04:36:38;;;;;;;6.73;1.40;;;6.60;99.90;;;;;;5378820;26;20248;-68
2024/04/24 04:39:06;;;;;;;2.23;1.30;;;6.60;99.90;;;;;;5376832;26;20825;-68
2024/04/24 04:41:31;;;;;;;3.20;1.67;;;6.60;99.90;;;;;;5372647;26;20335;-69
2024/04/24 04:43:57;;;;;;;3.97;1.60;;;6.60;99.90;;;;;;5379690;26;20539;-68
2024/04/24 04:46:23;;;;;;;3.30;1.13;;;6.60;99.90;;;;;;5380005;26;20233;-69
2024/04/24 04:48:48;;;;;;;1.70;1.20;;;6.60;99.90;;;;;;5379511;26;20233;-68
2024/04/24 04:51:14;;;;;;;4.53;1.23;;;6.60;99.90;;;;;;5378729;26;20615;-68
2024/04/24 04:53:40;;;;;;;1.60;1.27;;;6.70;99.90;;;;;;5379684;26;20217;-68
2024/04/24 04:56:06;;;;;;;2.40;1.17;;;6.60;99.90;;;;;;5379252;26;20252;-68
2024/04/24 04:58:31;;;;;;;1.60;1.20;;;6.70;99.90;;;;;;5379387;26;20724;-68
2024/04/24 05:00:57;;;;;;;1.43;1.00;;;6.70;99.90;;;;;;5378872;26;20460;-68
2024/04/24 05:03:22;;;;;;;6.37;2.63;;;6.70;99.90;;;;;;5379990;26;20214;-69
2024/04/24 05:05:48;;;;;;;3.27;2.33;;;6.70;99.90;;;;;;5348302;26;20243;-68
2024/04/24 05:08:14;;;;;;;1.67;1.53;;;6.80;99.90;;;;;;5379744;26;20217;-69
2024/04/24 05:10:39;;;;;;;2.50;1.30;;;6.80;99.90;;;;;;5374475;26;20736;-68
2024/04/24 05:13:12;;;;;;;3.40;1.83;;;6.80;99.90;;;;;;5368757;26;20221;-69
2024/04/24 05:15:38;;;;;;;4.80;1.87;;;6.90;99.90;;;;;;5379125;26;20280;-68
2024/04/24 05:18:04;;;;;;;3.83;2.47;;;6.90;99.90;;;;;;5378902;26;20993;-68
2024/04/24 05:20:30;;;;;;;2.90;1.33;;;6.90;99.90;;;;;;5379100;26;20226;-68
2024/04/24 05:23:00;;;;;;;3.40;1.43;;;6.90;99.90;;;;;;5378349;26;20558;-68
2024/04/24 05:25:31;;;;;;;6.03;2.50;;;6.90;99.90;;;;;;5378912;26;20226;-69
2024/04/24 05:30:41;;;;;;;4.73;1.73;;;6.90;99.90;;;;;;5378999;26;20890;-70
2024/04/24 05:33:07;;;;;;;4.10;2.07;;;6.90;99.90;;;;;;5378389;26;20440;-68
2024/04/24 05:35:32;;;;;;;3.83;1.77;;;7.00;99.90;;;;;;5378910;26;20251;-69
2024/04/24 05:37:57;;;;;;;3.93;3.17;;;7.00;99.90;;;;;;5379166;26;20354;-69
2024/04/24 05:40:23;;;;;;;3.07;1.47;;;7.00;99.90;;;;;;5369146;26;20222;-68
2024/04/24 05:42:49;;;;;;;2.00;1.80;;;7.10;99.90;;;;;;5378144;26;20225;-68
2024/04/24 05:45:14;;;;;;;2.57;2.20;;;7.20;99.90;;;;;;5378295;26;20225;-69
2024/04/24 05:47:40;;;;;;;2.67;2.40;;;7.20;99.90;;;;;;5379242;26;20326;-70
2024/04/24 05:50:05;;;;;;;2.70;2.43;;;7.40;99.90;;;;;;5382303;26;20252;-68
2024/04/24 05:52:31;;;;;;;4.13;2.57;;;7.40;99.90;;;;;;5381645;26;20209;-68
2024/04/24 05:54:56;;;;;;;3.40;2.30;;;7.50;99.90;;;;;;5382366;26;20252;-67
2024/04/24 05:57:25;;;;;;;4.67;2.70;;;7.70;99.90;;;;;;5382467;26;20318;-68
2024/04/24 05:59:51;;;;;;;5.23;2.50;;;7.80;99.90;;;;;;5382128;26;20256;-67
2024/04/24 06:02:16;;;;;;;2.40;2.07;;;8.00;99.90;;;;;;5381551;26;20891;-68
2024/04/24 06:04:42;;;;;;;2.30;2.10;;;8.20;99.90;;;;;;5381942;26;20567;-68
2024/04/24 06:07:07;;;;;;;14.23;2.77;;;8.30;99.90;;;;;;5382143;26;20210;-69
2024/04/24 06:09:33;;;;;;;2.33;2.00;;;8.50;99.90;;;;;;5378576;26;20572;-68
2024/04/24 06:11:59;;;;;;;2.20;2.00;;;8.60;99.90;;;;;;5381341;26;20229;-68
2024/04/24 06:14:25;;;;;;;2.37;2.17;;;8.60;99.90;;;;;;5381580;26;20603;-68
2024/04/24 06:16:50;;;;;;;5.80;2.60;;;8.60;99.90;;;;;;5381738;26;20256;-69
2024/04/24 06:19:16;;;;;;;2.03;1.83;;;8.60;99.90;;;;;;5381975;26;20338;-67
2024/04/24 06:21:41;;;;;;;3.63;2.00;;;8.70;99.90;;;;;;5381559;26;20330;-68
2024/04/24 06:24:07;;;;;;;3.43;2.23;;;8.80;99.90;;;;;;5377340;26;20691;-69
2024/04/24 06:26:33;;;;;;;3.07;2.60;;;9.00;99.90;;;;;;5379807;26;20229;-67
2024/04/24 06:28:58;;;;;;;4.63;2.33;;;9.30;99.90;;;;;;5375523;26;20285;-68
2024/04/24 06:31:24;;;;;;;5.43;2.07;;;9.60;99.90;;;;;;5381033;26;20226;-67
2024/04/24 06:33:49;;;;;;;1.93;1.73;;;10.00;99.90;;;;;;5381709;26;20565;-67
2024/04/24 06:36:15;;;;;;;2.33;1.73;;;10.40;99.90;;;;;;5381831;26;20343;-68
2024/04/24 06:38:40;;;;;;;4.40;2.07;;;10.70;99.90;;;;;;5381159;26;20689;-69
2024/04/24 06:41:06;;;;;;;4.80;1.80;;;10.90;99.90;;;;;;5370119;26;20348;-68
2024/04/24 06:43:31;;;;;;;5.40;2.10;;;11.00;99.90;;;;;;5380650;26;20322;-67
2024/04/24 06:45:57;;;;;;;1.97;1.20;;;11.10;99.90;;;;;;5381261;26;20237;-68
2024/04/24 06:48:22;;;;;;;8.03;2.00;;;11.10;99.90;;;;;;5381452;26;20225;-69
2024/04/24 06:50:49;;;;;;;2.70;1.77;;;11.00;99.90;;;;;;5381650;26;20221;-68
2024/04/24 06:53:14;;;;;;;1.43;1.20;;;11.00;99.90;;;;;;5381657;26;20225;-68
2024/04/24 06:55:44;;;;;;;7.63;1.40;;;11.20;99.90;;;;;;5381733;26;20553;-69
2024/04/24 06:58:10;;;;;;;2.37;1.20;;;11.60;99.90;;;;;;5380881;26;20261;-69
2024/04/24 07:00:35;;;;;;;2.50;2.03;;;11.70;99.90;;;;;;5381151;26;20460;-69
2024/04/24 07:03:03;;;;;;;2.10;1.40;;;11.70;99.90;;;;;;5380953;26;20491;-69
2024/04/24 07:05:28;;;;;;;2.13;1.50;;;11.70;99.90;;;;;;5381019;26;20260;-68
2024/04/24 07:07:54;;;;;;;2.80;1.43;;;11.70;99.90;;;;;;5378078;26;20451;-68
2024/04/24 07:10:19;;;;;;;1.27;1.17;;;11.90;99.90;;;;;;5346553;26;20238;-74
2024/04/24 07:12:45;;;;;;;1.97;1.80;;;12.00;99.90;;;;;;5380657;26;20560;-74
2024/04/24 07:15:11;;;;;;;3.57;1.30;;;12.30;99.90;;;;;;5349907;26;20269;-73
2024/04/24 07:17:36;;;;;;;2.00;1.33;;;12.60;99.90;;;;;;5381114;26;20240;-74
2024/04/24 07:20:02;;;;;;;2.30;1.30;;;12.80;99.90;;;;;;5342462;26;20230;-74
2024/04/24 07:22:27;;;;;;;1.33;1.20;;;13.00;99.90;;;;;;5376652;26;20222;-75
2024/04/24 07:24:53;;;;;;;3.33;1.17;;;13.00;99.90;;;;;;5370433;26;20863;-74
2024/04/24 07:27:18;;;;;;;1.87;1.40;;;13.30;99.90;;;;;;5349742;26;20289;-73
2024/04/24 07:29:44;;;;;;;5.83;1.57;;;14.20;99.90;;;;;;5380749;26;20348;-73
2024/04/24 07:32:09;;;;;;;2.07;1.90;;;15.50;99.90;;;;;;5380926;26;20565;-72
2024/04/24 07:34:35;;;;;;;1.40;0.83;;;17.00;95.00;;;;;;5380390;26;20676;-73
2024/04/24 07:37:00;;;;;;;1.67;1.50;;;18.30;86.10;;;;;;5380603;26;20233;-74
2024/04/24 07:39:26;;;;;;;5.30;1.10;;;19.60;68.00;;;;;;5379267;26;20331;-74
2024/04/24 07:41:51;;;;;;;4.50;1.33;;;20.90;59.10;;;;;;5349161;26;20233;-75
2024/04/24 07:44:17;;;;;;;3.67;1.23;;;21.80;53.90;;;;;;5380280;26;20272;-75
2024/04/24 07:46:42;;;;;;;2.70;1.60;;;21.70;47.10;;;;;;5380555;26;20230;-74
2024/04/24 07:49:08;;;;;;;2.60;1.63;;;21.00;44.80;;;;;;5380612;26;20260;-74
2024/04/24 07:51:33;;;;;;;2.33;1.50;;;19.40;42.50;;;;;;5380236;26;20256;-74
2024/04/24 07:53:59;;;;;;;1.57;1.47;;;18.40;44.20;;;;;;5380883;26;20298;-73
2024/04/24 07:56:24;;;;;;;2.60;1.47;;;17.40;45.70;;;;;;5380593;26;20261;-74
2024/04/24 07:58:50;;;;;;;3.20;1.50;;;16.80;47.70;;;;;;5380375;26;20213;-75
2024/04/24 08:01:15;;;;;;;3.40;1.60;;;16.30;48.30;;;;;;5380227;26;20809;-74
2024/04/24 08:03:41;;;;;;;2.60;1.53;;;15.80;50.60;;;;;;5380199;26;20269;-74
2024/04/24 08:06:07;;;;;;;3.63;1.97;;;16.00;51.80;;;;;;5380422;26;20221;-74
2024/04/24 08:08:37;;;;;;;2.40;1.83;;;15.90;51.40;;;;;;5380406;26;20210;-73
2024/04/24 08:11:03;;;;;;;6.97;1.87;;;15.50;51.20;;;;;;5378353;26;20520;-74
2024/04/24 08:13:28;;;;;;;3.13;1.90;;;15.30;52.40;;;;;;5380115;26;20436;-74
2024/04/24 08:15:54;;;;;;;3.47;1.90;;;15.30;53.60;;;;;;5380436;26;20225;-74
2024/04/24 08:18:19;;;;;;;4.20;1.63;;;15.20;53.70;;;;;;5380156;26;20224;-74
2024/04/24 08:20:45;;;;;;;2.10;1.77;;;14.90;53.40;;;;;;5380044;26;20267;-74
2024/04/24 08:23:11;;;;;;;2.40;1.63;;;14.50;53.20;;;;;;5379609;26;20214;-74
2024/04/24 08:25:36;;;;;;;5.13;1.90;;;14.10;53.90;;;;;;5380123;26;20209;-74
2024/04/24 08:28:02;;;;;;;6.93;1.70;;;13.80;55.00;;;;;;5380063;26;20612;-74
2024/04/24 08:30:27;;;;;;;2.00;1.10;;;13.70;56.20;;;;;;5379497;26;20229;-74
2024/04/24 08:32:54;;;;;;;1.97;1.17;;;14.10;57.90;;;;;;5370490;26;20306;-74
2024/04/24 08:35:19;;;;;;;2.50;1.40;;;14.50;57.20;;;;;;5379967;26;20269;-74
2024/04/24 08:37:45;;;;;;;4.10;1.40;;;14.60;56.40;;;;;;5379679;26;20982;-74
2024/04/24 08:40:11;;;;;;;3.73;1.47;;;14.40;55.40;;;;;;5371345;26;20325;-73
2024/04/24 08:42:36;;;;;;;2.90;1.60;;;14.10;55.00;;;;;;5378536;26;20218;-74
2024/04/24 08:45:03;;;;;;;3.37;1.20;;;13.60;55.50;;;;;;5379455;26;20217;-73
2024/04/24 08:47:28;;;;;;;3.60;1.57;;;13.20;57.00;;;;;;5379225;26;20502;-74
2024/04/24 08:49:54;;;;;;;4.87;2.13;;;12.80;58.80;;;;;;5379405;26;20455;-73
2024/04/24 08:52:25;;;;;;;7.13;1.50;;;12.50;59.80;;;;;;5378654;26;20230;-73
2024/04/24 08:55:03;;;;;;;6.93;1.20;;;12.60;61.70;;;;;;5379454;26;20218;-74
2024/04/24 08:57:29;;;;;;;3.63;1.10;;;13.20;64.80;;;;;;5379506;26;20467;-73
2024/04/24 09:00:01;;;;;;;3.97;1.53;;;14.80;70.90;;;;;;5370910;26;20495;-74
2024/04/24 09:02:31;;;;;;;5.10;1.87;;;18.00;55.50;;;;;;5379078;26;20456;-74
2024/04/24 09:05:00;;;;;;;1.63;1.13;;;21.20;51.50;;;;;;5367175;26;21029;-72
2024/04/24 09:07:27;;;;;;;2.80;2.10;;;23.80;46.50;;;;;;5361852;26;22362;-72
2024/04/24 09:09:53;;;;;;;3.07;1.60;;;23.50;37.30;;;;;;5359208;26;20511;-72
2024/04/24 09:12:19;;;;;;;4.17;1.53;;;23.60;37.50;;;;;;5378542;26;20980;-72
2024/04/24 09:14:46;;;;;;;2.23;1.50;;;23.10;36.30;;;;;;5369059;26;20260;-71
2024/04/24 09:17:12;;;;;;;2.60;1.60;;;22.20;36.30;;;;;;5379353;26;20526;-75
2024/04/24 09:19:38;;;;;;;4.20;1.47;;;21.20;36.50;;;;;;5379015;26;20561;-73
2024/04/24 09:22:04;;;;;;;3.57;1.57;;;20.20;37.00;;;;;;5378390;26;20284;-73
2024/04/24 09:24:29;;;;;;;2.70;0.97;;;19.00;38.40;;;;;;5382402;26;20470;-73
2024/04/24 09:26:55;;;;;;;2.83;1.20;;;18.10;40.20;;;;;;5382318;26;20334;-74
2024/04/24 09:29:21;;;;;;;5.07;1.73;;;17.30;41.60;;;;;;5382302;26;20326;-73
2024/04/24 09:31:48;;;;;;;4.93;1.37;;;16.50;42.60;;;;;;5378803;26;21001;-73
2024/04/24 09:34:13;;;;;;;3.03;1.30;;;16.10;44.00;;;;;;5378300;26;20221;-72
2024/04/24 09:36:42;;;;;;;1.90;1.20;;;16.40;47.50;;;;;;5382327;26;20583;-74
2024/04/24 09:39:08;;;;;;;2.13;1.13;;;18.80;49.20;;;;;;5382512;26;20206;-73
2024/04/24 09:41:40;;;;;;;2.43;1.33;;;22.10;46.20;;;;;;5381706;26;20532;-71
2024/04/24 09:44:12;;;;;;;4.03;1.80;;;25.30;41.10;;;;;;5382075;26;20518;-72
2024/04/24 09:46:53;;;;;;;3.87;1.20;;;27.30;36.60;;;;;;5382306;26;20502;-72
2024/04/24 09:49:19;;;;;;;2.30;1.23;;;29.50;33.60;;;;;;5351427;26;20451;-72
2024/04/24 09:51:46;;;;;;;4.97;1.97;;;30.60;28.70;;;;;;5381741;26;20986;-72
2024/04/24 09:54:12;;;;;;;2.03;1.20;;;31.00;26.60;;;;;;5351048;26;20491;-71
2024/04/24 09:56:47;;;;;;;3.03;1.27;;;31.70;25.80;;;;;;5382028;26;20451;-72
2024/04/24 09:59:14;;;;;;;1.20;1.00;;;33.60;25.50;;;;;;5382230;26;20303;-72
2024/04/24 10:01:48;;;;;;;1.60;1.20;;;34.20;22.90;;;;;;5381854;26;20552;-72
2024/04/24 10:04:17;;;;;;;3.33;1.50;;;34.30;22.30;;;;;;5382340;26;21096;-72
2024/04/24 10:06:46;;;;;;;1.70;1.17;;;35.10;22.10;;;;;;5382637;26;20486;-71
2024/04/24 10:09:15;;;;;;;3.90;1.30;;;34.70;21.10;;;;;;5382203;26;20492;-71
2024/04/24 10:11:50;;;;;;;1.30;1.17;;;34.70;19.70;;;;;;5381399;26;21106;-72
2024/04/24 10:14:20;;;;;;;2.33;1.37;;;34.40;19.00;;;;;;5380316;26;20499;-72
2024/04/24 10:16:48;;;;;;;5.47;1.40;;;33.70;19.00;;;;;;5382013;26;20452;-72
2024/04/24 10:19:16;;;;;;;3.60;1.60;;;33.00;19.70;;;;;;5351592;26;20475;-72
2024/04/24 10:21:44;;;;;;;2.83;1.50;;;31.90;19.10;;;;;;5381677;26;20465;-73
2024/04/24 10:24:10;;;;;;;4.63;2.03;;;31.20;20.20;;;;;;5350692;26;20443;-71
2024/04/24 10:26:37;;;;;;;2.20;1.40;;;30.20;20.80;;;;;;5382004;26;20436;-72
2024/04/24 10:29:06;;;;;;;6.73;1.33;;;28.20;20.50;;;;;;5382015;26;20452;-72
2024/04/24 10:31:31;;;;;;;3.00;1.10;;;27.00;22.60;;;;;;5377736;26;20853;-72
2024/04/24 10:33:59;;;;;;;3.47;1.50;;;26.50;23.60;;;;;;5380434;26;20448;-71
2024/04/24 10:36:24;;;;;;;3.07;1.70;;;26.00;24.40;;;;;;5347657;26;20260;-71
2024/04/24 10:38:54;;;;;;;2.53;1.37;;;25.50;25.00;;;;;;5373798;26;20471;-70
2024/04/24 10:41:20;;;;;;;1.80;1.20;;;25.30;25.70;;;;;;5380657;26;20226;-71
2024/04/24 10:43:46;;;;;;;3.93;1.40;;;25.60;25.30;;;;;;5374901;26;20461;-70
2024/04/24 10:46:17;;;;;;;5.50;1.43;;;25.80;25.90;;;;;;5373353;26;20237;-70
2024/04/24 10:49:00;;;;;;;3.07;1.47;;;25.50;26.10;;;;;;5381483;26;20444;-70
2024/04/24 10:51:27;;;;;;;4.70;1.70;;;25.20;26.50;;;;;;5349941;26;20539;-70
2024/04/24 10:53:52;;;;;;;3.20;1.60;;;25.40;25.80;;;;;;5381320;26;20893;-70
2024/04/24 10:56:18;;;;;;;2.83;1.73;;;25.50;25.60;;;;;;5379251;26;20463;-67
2024/04/24 10:58:52;;;;;;;2.70;1.37;;;25.40;25.60;;;;;;5397841;26;20303;-68
2024/04/24 11:01:17;;;;;;;2.10;1.60;;;26.10;25.40;;;;;;5405876;26;20280;-68
2024/04/24 11:03:43;;;;;;;3.80;1.40;;;27.40;24.90;;;;;;5380519;26;20456;-69
2024/04/24 11:06:11;;;;;;;2.53;1.47;;;27.90;23.90;;;;;;5381059;26;20219;-67
2024/04/24 11:08:39;;;;;;;3.70;1.80;;;26.90;23.50;;;;;;5380488;26;20663;-68
2024/04/24 11:11:05;;;;;;;4.90;1.50;;;25.40;23.90;;;;;;5380113;26;20460;-67
2024/04/24 11:13:30;;;;;;;1.67;1.37;;;24.00;24.90;;;;;;5380017;26;20498;-68
2024/04/24 11:16:02;;;;;;;9.77;3.10;;;22.80;26.10;;;;;;5381060;26;20209;-68
2024/04/24 11:18:28;;;;;;;6.33;1.50;;;21.80;26.80;;;;;;5379959;26;20214;-69
2024/04/24 11:20:54;;;;;;;2.50;1.30;;;21.00;27.40;;;;;;5380310;26;20994;-68
2024/04/24 11:23:20;;;;;;;1.87;1.03;;;20.40;27.80;;;;;;5349243;26;20256;-69
2024/04/24 11:25:50;;;;;;;11.13;1.83;;;19.70;28.60;;;;;;5380390;26;20802;-68
2024/04/24 11:28:18;;;;;;;3.17;1.50;;;19.00;29.30;;;;;;5380753;26;21019;-69
2024/04/24 11:30:44;;;;;;;2.23;1.90;;;17.90;31.10;;;;;;5381112;26;20512;-67
2024/04/24 11:33:10;;;;;;;1.03;0.80;;;17.00;33.90;;;;;;5377760;26;20572;-69
2024/04/24 11:35:35;;;;;;;7.73;1.50;;;16.20;36.10;;;;;;5380248;26;20455;-67
2024/04/24 11:38:01;;;;;;;2.40;2.20;;;15.70;37.80;;;;;;5379567;26;20226;-68
2024/04/24 11:40:27;;;;;;;2.80;1.27;;;15.60;39.60;;;;;;5345386;26;20229;-68
2024/04/24 11:42:53;;;;;;;4.57;2.17;;;15.70;41.10;;;;;;5371709;26;20463;-67
2024/04/24 11:45:21;;;;;;;6.40;2.00;;;16.10;42.30;;;;;;5380251;26;20237;-68
2024/04/24 11:47:50;;;;;;;4.60;1.80;;;16.50;42.20;;;;;;5380525;26;20660;-68
2024/04/24 11:50:20;;;;;;;6.50;1.70;;;16.60;40.90;;;;;;5379121;26;20453;-69
2024/04/24 11:52:47;;;;;;;8.40;1.70;;;16.20;40.10;;;;;;5378114;26;20516;-68
2024/04/24 11:55:12;;;;;;;1.70;1.57;;;15.60;41.00;;;;;;5380406;26;20511;-69
2024/04/24 11:57:39;;;;;;;8.73;2.03;;;15.50;43.10;;;;;;5380551;26;20452;-68
2024/04/24 12:00:06;;;;;;;2.80;1.50;;;15.90;44.70;;;;;;5380589;26;20209;-67
2024/04/24 12:02:34;;;;;;;1.97;1.30;;;16.40;44.20;;;;;;5380544;26;20823;-68
2024/04/24 12:05:04;;;;;;;2.10;1.83;;;17.80;45.00;;;;;;5349758;26;20459;-68
2024/04/24 12:07:29;;;;;;;1.63;1.40;;;21.50;43.90;;;;;;5380285;26;20440;-68
2024/04/24 12:09:56;;;;;;;2.90;1.47;;;25.90;39.90;;;;;;5349453;26;20448;-69
2024/04/24 12:12:23;;;;;;;1.20;1.10;;;29.60;32.10;;;;;;5349536;26;20225;-69
2024/04/24 12:14:54;;;;;;;1.50;1.20;;;32.70;29.20;;;;;;5380230;26;21018;-70
2024/04/24 12:17:20;;;;;;;2.00;1.10;;;35.40;26.30;;;;;;5380192;26;20491;-69
2024/04/24 12:19:45;;;;;;;1.37;1.10;;;37.40;23.30;;;;;;5380131;26;20451;-69
2024/04/24 12:22:11;;;;;;;1.70;1.30;;;39.10;22.60;;;;;;5379766;26;20268;-69
2024/04/24 12:24:37;;;;;;;1.70;1.50;;;40.10;19.90;;;;;;5379909;26;20574;-69
2024/04/24 12:27:03;;;;;;;2.07;1.87;;;39.80;18.80;;;;;;5380118;26;20423;-69
2024/04/24 12:29:28;;;;;;;1.70;1.30;;;39.80;19.10;;;;;;5380258;26;20296;-69
2024/04/24 12:31:55;;;;;;;1.50;1.40;;;40.10;18.00;;;;;;5380069;26;20320;-68
2024/04/24 12:34:20;;;;;;;2.27;2.07;;;40.50;17.20;;;;;;5380641;26;20221;-69
2024/04/24 12:36:46;;;;;;;3.07;1.80;;;39.60;16.90;;;;;;5380789;26;21037;-69
2024/04/24 12:39:12;;;;;;;1.83;1.50;;;37.90;17.00;;;;;;5381609;26;20214;-69
2024/04/24 12:41:37;;;;;;;2.27;1.70;;;36.10;17.20;;;;;;5380591;26;20251;-69
2024/04/24 12:44:04;;;;;;;3.23;1.57;;;33.80;18.40;;;;;;5379859;26;20249;-70
2024/04/24 12:46:30;;;;;;;2.80;1.10;;;31.30;19.50;;;;;;5379642;26;20275;-68
2024/04/24 12:48:55;;;;;;;1.90;1.47;;;29.10;20.60;;;;;;5379644;26;20439;-70
2024/04/24 12:51:22;;;;;;;2.43;1.20;;;26.90;22.40;;;;;;5379086;26;20331;-68